Time;durP1;ratioP1;P1;durP2;ratioP2;P2;SDS_P1;SDS_P2;PMS_P1;PMS_P2;Temp;Humidity;BMP_temperature;BMP_pressure;BME280_temperature;BME280_humidity;BME280_pressure;Samples;Min_cycle;Max_cycle;Signal;HPM_P1;HPM_P2
2021/09/28 00:00:51;;;;;;;1.13;0.63;;;;;;;;;;5094905;28;20162;-83
2021/09/28 00:03:16;;;;;;;1.33;0.63;;;;;;;;;;5094756;28;20019;-84
2021/09/28 00:05:44;;;;;;;1.27;0.47;;;;;;;;;;5096030;28;20370;-83
2021/09/28 00:08:09;;;;;;;1.70;0.50;;;;;;;;;;5095656;28;20512;-82
2021/09/28 00:10:36;;;;;;;0.50;0.30;;;;;;;;;;5095861;28;20055;-83
2021/09/28 00:13:02;;;;;;;1.30;0.57;;;;;;;;;;5094588;28;20066;-83
2021/09/28 00:15:28;;;;;;;2.90;0.60;;;;;;;;;;5095744;28;20085;-83
2021/09/28 00:17:53;;;;;;;0.68;0.50;;;;;;;;;;5095952;28;20028;-84
2021/09/28 00:20:18;;;;;;;2.27;0.60;;;;;;;;;;5093754;28;20028;-83
2021/09/28 00:22:44;;;;;;;0.50;0.47;;;;;;;;;;5094618;28;20051;-83
2021/09/28 00:25:10;;;;;;;0.80;0.53;;;;;;;;;;5094518;28;20020;-83
2021/09/28 00:27:36;;;;;;;1.23;0.60;;;;;;;;;;5094213;28;20039;-83
2021/09/28 00:30:01;;;;;;;1.57;0.60;;;;;;;;;;5095761;28;20024;-82
2021/09/28 00:32:27;;;;;;;2.53;0.60;;;;;;;;;;5097247;28;20051;-82
2021/09/28 00:34:52;;;;;;;1.85;0.60;;;;;;;;;;5095977;28;20112;-83
2021/09/28 00:37:18;;;;;;;1.70;0.80;;;;;;;;;;5094303;28;20355;-83
2021/09/28 00:39:44;;;;;;;2.07;0.80;;;;;;;;;;5094115;28;20020;-83
2021/09/28 00:42:09;;;;;;;2.83;0.65;;;;;;;;;;5095441;28;20391;-82
2021/09/28 00:44:40;;;;;;;3.63;0.63;;;;;;;;;;5094996;28;20040;-83
2021/09/28 00:47:08;;;;;;;1.92;0.70;;;;;;;;;;5094245;28;20063;-83
2021/09/28 00:49:34;;;;;;;3.17;0.70;;;;;;;;;;5094157;28;20031;-83
2021/09/28 00:52:00;;;;;;;1.77;0.70;;;;;;;;;;5095132;28;20055;-82
2021/09/28 00:54:26;;;;;;;3.03;0.53;;;;;;;;;;5095435;28;20032;-82
2021/09/28 00:56:52;;;;;;;4.00;0.73;;;;;;;;;;5094099;28;20092;-83
2021/09/28 00:59:18;;;;;;;0.68;0.40;;;;;;;;;;5094027;28;20024;-83
2021/09/28 01:01:45;;;;;;;4.10;0.40;;;;;;;;;;5095544;28;20363;-84
2021/09/28 01:04:10;;;;;;;0.98;0.63;;;;;;;;;;5095054;28;20016;-83
2021/09/28 01:06:45;;;;;;;1.45;0.50;;;;;;;;;;5094017;28;20020;-83
2021/09/28 01:09:11;;;;;;;1.83;0.60;;;;;;;;;;5094066;28;20024;-83
2021/09/28 01:11:38;;;;;;;1.40;0.43;;;;;;;;;;5094051;28;20035;-83
2021/09/28 01:14:04;;;;;;;1.60;0.40;;;;;;;;;;5094007;28;20027;-82
2021/09/28 01:16:30;;;;;;;1.83;0.57;;;;;;;;;;5095313;28;20103;-84
2021/09/28 01:18:55;;;;;;;1.83;0.65;;;;;;;;;;5094203;28;20438;-83
2021/09/28 01:21:21;;;;;;;1.70;0.60;;;;;;;;;;5094758;28;20020;-83
2021/09/28 01:23:46;;;;;;;2.03;0.50;;;;;;;;;;5094889;28;20105;-84
2021/09/28 01:26:13;;;;;;;0.70;0.60;;;;;;;;;;5094986;28;20035;-84
2021/09/28 01:28:40;;;;;;;2.47;0.55;;;;;;;;;;5095395;28;20028;-83
2021/09/28 01:31:05;;;;;;;0.40;0.40;;;;;;;;;;5094298;28;20133;-84
2021/09/28 01:33:31;;;;;;;1.75;0.75;;;;;;;;;;5097949;28;20518;-83
2021/09/28 01:35:56;;;;;;;0.50;0.40;;;;;;;;;;5098536;28;20468;-83
2021/09/28 01:38:21;;;;;;;4.03;0.88;;;;;;;;;;5098456;28;20099;-83
2021/09/28 01:40:47;;;;;;;1.92;0.50;;;;;;;;;;5098475;28;20047;-83
2021/09/28 01:43:14;;;;;;;2.20;0.70;;;;;;;;;;5098582;28;20465;-83
2021/09/28 01:45:41;;;;;;;1.05;0.40;;;;;;;;;;5097417;28;20063;-83
2021/09/28 01:48:07;;;;;;;1.20;0.47;;;;;;;;;;5098377;28;20088;-84
2021/09/28 01:50:34;;;;;;;2.78;0.70;;;;;;;;;;5097434;28;20114;-82
2021/09/28 01:52:59;;;;;;;2.00;0.65;;;;;;;;;;5098469;28;20397;-82
2021/09/28 01:55:24;;;;;;;2.42;0.60;;;;;;;;;;5098273;28;20032;-83
2021/09/28 01:57:56;;;;;;;1.60;0.57;;;;;;;;;;5098411;28;20016;-83
2021/09/28 02:00:23;;;;;;;2.28;0.68;;;;;;;;;;5097716;28;20372;-84
2021/09/28 02:02:48;;;;;;;;;;;;;;;;;;5100690;28;20020;-83
2021/09/28 02:05:13;;;;;;;0.90;0.47;;;;;;;;;;5115562;28;19929;-83
2021/09/28 02:07:38;;;;;;;1.17;0.52;;;;;;;;;;5118408;28;20036;-85
2021/09/28 02:10:05;;;;;;;0.57;0.40;;;;;;;;;;5119837;28;20024;-83
2021/09/28 02:12:30;;;;;;;1.33;0.50;;;;;;;;;;5121282;28;20035;-84
2021/09/28 02:14:55;;;;;;;1.58;0.50;;;;;;;;;;5105018;28;20064;-83
2021/09/28 02:17:20;;;;;;;3.80;0.80;;;;;;;;;;5100582;28;20361;-83
2021/09/28 02:19:46;;;;;;;1.25;0.60;;;;;;;;;;5101280;28;20077;-83
2021/09/28 02:22:11;;;;;;;1.77;0.60;;;;;;;;;;5099783;28;20043;-84
2021/09/28 02:24:36;;;;;;;1.85;0.50;;;;;;;;;;5098240;28;20108;-84
2021/09/28 02:27:02;;;;;;;1.47;0.43;;;;;;;;;;5096730;28;20085;-82
2021/09/28 02:29:27;;;;;;;2.58;0.65;;;;;;;;;;5096442;28;20028;-83
2021/09/28 02:31:52;;;;;;;1.37;0.80;;;;;;;;;;5096475;28;20020;-83
2021/09/28 02:34:18;;;;;;;6.22;0.85;;;;;;;;;;5096330;28;20020;-82
2021/09/28 02:36:43;;;;;;;3.47;0.65;;;;;;;;;;5096317;28;20024;-83
2021/09/28 02:39:09;;;;;;;0.65;0.50;;;;;;;;;;5096500;28;20052;-83
2021/09/28 02:41:37;;;;;;;3.17;0.65;;;;;;;;;;5097353;28;20030;-83
2021/09/28 02:44:04;;;;;;;3.95;0.80;;;;;;;;;;5095178;28;20032;-83
2021/09/28 02:46:31;;;;;;;;;;;;;;;;;;5096399;28;20044;-83
2021/09/28 02:48:56;;;;;;;1.10;0.50;;;;;;;;;;5096203;28;20360;-83
2021/09/28 02:51:22;;;;;;;2.08;0.73;;;;;;;;;;5096213;28;20020;-83
2021/09/28 02:53:47;;;;;;;1.57;0.60;;;;;;;;;;5096030;28;20038;-84
2021/09/28 02:56:12;;;;;;;1.90;0.60;;;;;;;;;;5097300;28;20032;-84
2021/09/28 02:58:38;;;;;;;2.10;0.50;;;;;;;;;;5095982;28;20456;-82
2021/09/28 03:01:03;;;;;;;1.55;0.73;;;;;;;;;;5095904;28;20039;-84
2021/09/28 03:03:28;;;;;;;1.73;0.75;;;;;;;;;;5096952;28;20038;-83
2021/09/28 03:05:54;;;;;;;2.80;0.70;;;;;;;;;;5096843;28;20027;-83
2021/09/28 03:08:19;;;;;;;1.80;0.50;;;;;;;;;;5095973;28;20400;-82
2021/09/28 03:10:44;;;;;;;1.02;0.68;;;;;;;;;;5096107;28;20020;-83
2021/09/28 03:13:11;;;;;;;1.70;0.85;;;;;;;;;;5096790;28;20035;-83
2021/09/28 03:15:36;;;;;;;1.45;0.63;;;;;;;;;;5097068;28;20032;-83
2021/09/28 03:18:02;;;;;;;3.63;1.13;;;;;;;;;;5096767;28;20051;-83
2021/09/28 03:20:28;;;;;;;1.77;0.80;;;;;;;;;;5097937;28;20040;-83
2021/09/28 03:22:53;;;;;;;1.03;0.53;;;;;;;;;;5101614;28;20354;-83
2021/09/28 03:25:19;;;;;;;2.10;0.68;;;;;;;;;;5101263;28;20094;-82
2021/09/28 03:27:44;;;;;;;0.95;0.60;;;;;;;;;;5100416;28;20036;-84
2021/09/28 03:30:10;;;;;;;4.63;0.77;;;;;;;;;;5099998;28;20020;-83
2021/09/28 03:32:36;;;;;;;2.28;0.80;;;;;;;;;;5098936;28;20071;-82
2021/09/28 03:35:05;;;;;;;3.73;0.80;;;;;;;;;;5099999;28;20023;-83
2021/09/28 03:37:31;;;;;;;1.40;0.65;;;;;;;;;;5097224;28;20442;-84
2021/09/28 03:39:56;;;;;;;1.25;1.00;;;;;;;;;;5098671;28;20035;-84
2021/09/28 03:42:21;;;;;;;1.88;0.65;;;;;;;;;;5096428;28;20032;-83
2021/09/28 03:44:46;;;;;;;1.70;0.83;;;;;;;;;;5096500;28;20346;-83
2021/09/28 03:47:12;;;;;;;1.77;0.80;;;;;;;;;;5095037;28;20055;-83
2021/09/28 03:49:37;;;;;;;4.32;0.90;;;;;;;;;;5095938;28;20036;-82
2021/09/28 03:52:03;;;;;;;1.50;0.70;;;;;;;;;;5094992;28;20024;-83
2021/09/28 03:54:28;;;;;;;2.45;1.00;;;;;;;;;;5096014;28;20098;-84
2021/09/28 03:56:53;;;;;;;1.90;0.77;;;;;;;;;;5095957;28;20102;-83
2021/09/28 03:59:19;;;;;;;2.95;1.00;;;;;;;;;;5096147;28;20016;-82
2021/09/28 04:01:44;;;;;;;2.60;0.95;;;;;;;;;;5095565;28;20104;-84
2021/09/28 04:04:10;;;;;;;3.70;1.05;;;;;;;;;;5096154;28;20063;-84
2021/09/28 04:06:36;;;;;;;5.65;0.98;;;;;;;;;;5095727;28;20035;-84
2021/09/28 04:09:01;;;;;;;1.83;0.60;;;;;;;;;;5095756;28;20457;-84
2021/09/28 04:11:26;;;;;;;2.47;0.70;;;;;;;;;;5095551;28;20103;-82
2021/09/28 04:13:52;;;;;;;2.08;0.90;;;;;;;;;;5095507;28;20024;-83
2021/09/28 04:16:17;;;;;;;1.67;0.80;;;;;;;;;;5095856;28;20035;-83
2021/09/28 04:18:45;;;;;;;2.50;0.90;;;;;;;;;;5094841;28;20461;-83
2021/09/28 04:21:11;;;;;;;5.05;1.08;;;;;;;;;;5095726;28;20024;-83
2021/09/28 04:23:36;;;;;;;3.50;1.10;;;;;;;;;;5095739;28;20442;-83
2021/09/28 04:26:02;;;;;;;1.95;1.02;;;;;;;;;;5094675;28;20357;-84
2021/09/28 04:28:28;;;;;;;3.67;1.15;;;;;;;;;;5094439;28;20024;-83
2021/09/28 04:30:53;;;;;;;3.03;1.00;;;;;;;;;;5097241;28;20039;-83
2021/09/28 04:33:18;;;;;;;3.00;1.15;;;;;;;;;;5095579;28;20051;-83
2021/09/28 04:35:44;;;;;;;3.80;0.95;;;;;;;;;;5094694;28;20023;-83
2021/09/28 04:38:09;;;;;;;1.55;1.17;;;;;;;;;;5095595;28;20111;-83
2021/09/28 04:40:34;;;;;;;2.95;1.20;;;;;;;;;;5095648;28;20358;-82
2021/09/28 04:43:00;;;;;;;2.27;1.00;;;;;;;;;;5095912;28;20028;-83
2021/09/28 04:45:25;;;;;;;3.30;0.90;;;;;;;;;;5096370;28;20031;-83
2021/09/28 04:47:50;;;;;;;3.85;1.10;;;;;;;;;;5096071;28;20059;-83
2021/09/28 04:50:16;;;;;;;2.53;1.07;;;;;;;;;;5102773;28;20038;-82
2021/09/28 04:52:41;;;;;;;5.20;1.10;;;;;;;;;;5110973;28;20027;-83
2021/09/28 04:55:07;;;;;;;2.40;1.10;;;;;;;;;;5107614;28;20020;-82
2021/09/28 04:57:32;;;;;;;1.85;1.15;;;;;;;;;;5099295;28;20020;-82
2021/09/28 04:59:58;;;;;;;4.80;1.20;;;;;;;;;;5103150;28;20031;-83
2021/09/28 05:02:23;;;;;;;3.78;1.30;;;;;;;;;;5112407;28;20462;-84
2021/09/28 05:04:49;;;;;;;7.03;1.27;;;;;;;;;;5113507;28;20476;-83
2021/09/28 05:07:14;;;;;;;4.93;1.33;;;;;;;;;;5107393;28;20085;-85
2021/09/28 05:09:40;;;;;;;3.40;1.60;;;;;;;;;;5110830;28;20016;-84
2021/09/28 05:12:06;;;;;;;3.90;1.60;;;;;;;;;;5110853;28;20087;-84
2021/09/28 05:14:31;;;;;;;4.40;1.50;;;;;;;;;;5112233;28;20030;-85
2021/09/28 05:16:57;;;;;;;4.93;1.70;;;;;;;;;;5114634;28;20047;-84
2021/09/28 05:19:22;;;;;;;3.10;1.80;;;;;;;;;;5115112;28;20087;-82
2021/09/28 05:21:48;;;;;;;4.65;1.63;;;;;;;;;;5108769;28;20032;-84
2021/09/28 05:24:13;;;;;;;6.95;2.20;;;;;;;;;;5100448;28;20450;-83
2021/09/28 05:26:39;;;;;;;7.03;2.15;;;;;;;;;;5109368;28;20028;-83
2021/09/28 05:29:04;;;;;;;3.63;1.90;;;;;;;;;;5122827;28;20067;-83
2021/09/28 05:31:30;;;;;;;3.58;2.00;;;;;;;;;;5121077;28;20020;-82
2021/09/28 05:33:55;;;;;;;4.88;1.98;;;;;;;;;;5122456;28;20065;-83
2021/09/28 05:36:21;;;;;;;4.15;2.28;;;;;;;;;;5118522;28;20031;-82
2021/09/28 05:38:51;;;;;;;6.45;1.95;;;;;;;;;;5109917;28;20020;-82
2021/09/28 05:41:16;;;;;;;6.10;2.63;;;;;;;;;;5111089;28;20123;-85
2021/09/28 05:43:42;;;;;;;6.80;3.97;;;;;;;;;;5105037;28;20406;-85
2021/09/28 05:46:07;;;;;;;6.65;2.75;;;;;;;;;;5102294;28;20052;-84
2021/09/28 05:48:33;;;;;;;4.60;2.00;;;;;;;;;;5103423;28;20024;-87
2021/09/28 05:50:59;;;;;;;3.25;2.17;;;;;;;;;;5102401;28;20016;-84
2021/09/28 05:53:26;;;;;;;6.45;2.60;;;;;;;;;;5112848;28;20016;-84
2021/09/28 05:55:51;;;;;;;5.15;2.85;;;;;;;;;;5112558;28;20034;-86
2021/09/28 05:58:17;;;;;;;5.18;2.70;;;;;;;;;;5106355;28;20382;-85
2021/09/28 06:00:42;;;;;;;5.57;2.40;;;;;;;;;;5101511;28;20107;-85
2021/09/28 06:03:07;;;;;;;4.38;2.63;;;;;;;;;;5101112;28;20024;-84
2021/09/28 06:05:35;;;;;;;4.38;2.40;;;;;;;;;;5100920;28;20395;-83
2021/09/28 06:08:00;;;;;;;7.18;2.35;;;;;;;;;;5099315;28;20020;-84
2021/09/28 06:10:25;;;;;;;6.25;2.08;;;;;;;;;;5099527;28;20020;-82
2021/09/28 06:12:51;;;;;;;5.53;2.47;;;;;;;;;;5099560;28;20357;-81
2021/09/28 06:15:16;;;;;;;4.82;2.75;;;;;;;;;;5097709;28;20023;-82
2021/09/28 06:17:42;;;;;;;6.53;4.07;;;;;;;;;;5098193;28;20425;-83
2021/09/28 06:20:11;;;;;;;5.90;2.80;;;;;;;;;;5097648;28;20032;-84
2021/09/28 06:22:45;;;;;;;4.18;2.78;;;;;;;;;;5097780;28;20162;-85
2021/09/28 06:25:10;;;;;;;4.05;2.58;;;;;;;;;;5096537;28;20023;-82
2021/09/28 06:27:36;;;;;;;5.30;2.85;;;;;;;;;;5097794;28;20047;-83
2021/09/28 06:30:02;;;;;;;4.37;2.83;;;;;;;;;;5097979;28;20028;-82
2021/09/28 06:32:28;;;;;;;5.50;2.72;;;;;;;;;;5097710;28;20024;-83
2021/09/28 06:34:53;;;;;;;4.95;2.92;;;;;;;;;;5096875;28;20442;-82
2021/09/28 06:37:18;;;;;;;9.87;3.07;;;;;;;;;;5098298;28;20046;-83
2021/09/28 06:39:43;;;;;;;5.72;3.30;;;;;;;;;;5097945;28;20106;-83
2021/09/28 06:42:09;;;;;;;4.05;2.97;;;;;;;;;;5096683;28;20089;-82
2021/09/28 06:44:34;;;;;;;6.10;3.20;;;;;;;;;;5096771;28;20464;-83
2021/09/28 06:47:00;;;;;;;5.53;2.73;;;;;;;;;;5096389;28;20050;-83
2021/09/28 06:49:25;;;;;;;6.93;3.35;;;;;;;;;;5097391;28;20496;-83
2021/09/28 06:51:50;;;;;;;6.03;3.30;;;;;;;;;;5096275;28;20130;-83
2021/09/28 06:54:16;;;;;;;5.25;2.70;;;;;;;;;;5097332;28;20036;-84
2021/09/28 06:56:41;;;;;;;5.03;2.78;;;;;;;;;;5096759;28;20373;-83
2021/09/28 06:59:08;;;;;;;5.23;3.00;;;;;;;;;;5096083;28;20035;-83
2021/09/28 07:01:40;;;;;;;4.60;3.05;;;;;;;;;;5096517;28;20024;-84
2021/09/28 07:04:06;;;;;;;6.18;3.10;;;;;;;;;;5097614;28;20047;-84
2021/09/28 07:06:32;;;;;;;10.13;3.40;;;;;;;;;;5097615;28;20024;-84
2021/09/28 07:08:57;;;;;;;4.63;3.00;;;;;;;;;;5097388;28;20035;-84
2021/09/28 07:11:23;;;;;;;7.33;3.57;;;;;;;;;;5097160;28;20103;-83
2021/09/28 07:13:49;;;;;;;11.60;3.40;;;;;;;;;;5096433;28;20024;-84
2021/09/28 07:16:15;;;;;;;7.40;3.53;;;;;;;;;;5096514;28;20135;-84
2021/09/28 07:18:40;;;;;;;7.15;3.70;;;;;;;;;;5096923;28;20087;-84
2021/09/28 07:21:06;;;;;;;5.50;3.83;;;;;;;;;;5098031;28;20399;-84
2021/09/28 07:23:32;;;;;;;8.57;3.47;;;;;;;;;;5096394;28;20035;-83
2021/09/28 07:25:57;;;;;;;8.52;4.30;;;;;;;;;;5098256;28;20039;-83
2021/09/28 07:28:23;;;;;;;8.10;3.97;;;;;;;;;;5097716;28;20032;-84
2021/09/28 07:30:50;;;;;;;5.23;4.10;;;;;;;;;;5097387;28;20357;-84
2021/09/28 07:33:15;;;;;;;6.63;3.75;;;;;;;;;;5096319;28;20101;-84
2021/09/28 07:35:44;;;;;;;3.67;2.53;;;;;;;;;;5096923;28;20028;-84
2021/09/28 07:38:10;;;;;;;3.90;2.83;;;;;;;;;;5097828;28;20104;-84
2021/09/28 07:40:35;;;;;;;4.27;2.47;;;;;;;;;;5097535;28;20052;-84
2021/09/28 07:43:00;;;;;;;5.40;2.10;;;;;;;;;;5096193;28;20016;-84
2021/09/28 07:45:26;;;;;;;4.57;2.70;;;;;;;;;;5097218;28;20038;-85
2021/09/28 07:47:51;;;;;;;4.03;2.57;;;;;;;;;;5096031;28;20047;-85
2021/09/28 07:50:18;;;;;;;5.10;2.00;;;;;;;;;;5097617;28;20026;-88
2021/09/28 07:52:43;;;;;;;2.90;1.70;;;;;;;;;;5099210;28;20059;-86
2021/09/28 07:55:09;;;;;;;9.40;2.20;;;;;;;;;;5101814;28;20028;-86
2021/09/28 07:57:35;;;;;;;3.33;1.30;;;;;;;;;;5096927;28;20031;-83
2021/09/28 08:00:00;;;;;;;3.00;1.10;;;;;;;;;;5096743;28;20358;-87
2021/09/28 08:02:26;;;;;;;1.43;0.77;;;;;;;;;;5098179;28;20114;-86
2021/09/28 08:04:51;;;;;;;2.30;1.00;;;;;;;;;;5097954;28;20024;-86
2021/09/28 08:07:17;;;;;;;2.57;1.10;;;;;;;;;;5101152;28;20032;-87
2021/09/28 08:09:43;;;;;;;1.90;0.80;;;;;;;;;;5103722;28;20054;-87
2021/09/28 08:12:09;;;;;;;4.43;1.42;;;;;;;;;;5100310;28;20036;-86
2021/09/28 08:14:34;;;;;;;3.17;0.97;;;;;;;;;;5099135;28;20063;-86
2021/09/28 08:16:59;;;;;;;2.50;1.00;;;;;;;;;;5101967;28;20053;-85
2021/09/28 08:19:25;;;;;;;2.63;1.20;;;;;;;;;;5100552;28;20160;-86
2021/09/28 08:21:53;;;;;;;3.63;1.20;;;;;;;;;;5102298;28;20040;-86
2021/09/28 08:24:19;;;;;;;4.30;1.15;;;;;;;;;;5098537;28;20412;-86
2021/09/28 08:29:30;;;;;;;3.08;1.00;;;;;;;;;;5097667;28;20109;-86
2021/09/28 08:31:55;;;;;;;3.77;1.10;;;;;;;;;;5098744;28;20399;-86
2021/09/28 08:34:21;;;;;;;3.33;1.00;;;;;;;;;;5097685;28;20024;-87
2021/09/28 08:36:47;;;;;;;2.40;1.00;;;;;;;;;;5097482;28;20024;-87
2021/09/28 08:39:15;;;;;;;1.20;0.70;;;;;;;;;;5096426;28;20024;-87
2021/09/28 08:41:44;;;;;;;1.70;0.70;;;;;;;;;;5097859;28;20028;-86
2021/09/28 08:44:11;;;;;;;2.80;1.05;;;;;;;;;;5102509;28;20087;-86
2021/09/28 08:46:36;;;;;;;4.25;0.90;;;;;;;;;;5103369;28;20665;-89
2021/09/28 08:49:02;;;;;;;2.20;0.80;;;;;;;;;;5101853;28;20059;-86
2021/09/28 08:51:28;;;;;;;3.53;0.70;;;;;;;;;;5102056;28;20358;-84
2021/09/28 08:53:54;;;;;;;1.67;0.75;;;;;;;;;;5100921;28;20031;-86
2021/09/28 08:56:19;;;;;;;2.23;1.00;;;;;;;;;;5106427;28;20035;-85
2021/09/28 08:58:54;;;;;;;2.63;0.90;;;;;;;;;;5111643;28;20024;-86
2021/09/28 09:01:19;;;;;;;3.45;0.70;;;;;;;;;;5107344;28;20028;-86
2021/09/28 09:03:45;;;;;;;3.33;0.90;;;;;;;;;;5109060;28;20059;-85
2021/09/28 09:06:10;;;;;;;2.57;0.77;;;;;;;;;;5111887;28;20027;-85
2021/09/28 09:08:37;;;;;;;1.80;0.97;;;;;;;;;;5107976;28;20051;-85
2021/09/28 09:11:05;;;;;;;3.78;1.50;;;;;;;;;;5105251;28;20024;-86
2021/09/28 09:13:32;;;;;;;3.75;0.82;;;;;;;;;;5103537;28;20039;-85
2021/09/28 09:15:58;;;;;;;4.00;0.90;;;;;;;;;;5109313;28;20035;-86
2021/09/28 09:18:23;;;;;;;2.90;0.90;;;;;;;;;;5112200;28;20080;-84
2021/09/28 09:20:48;;;;;;;3.67;0.90;;;;;;;;;;5109619;28;20087;-86
2021/09/28 09:23:18;;;;;;;2.33;1.00;;;;;;;;;;5106428;28;20024;-84
2021/09/28 09:25:45;;;;;;;3.25;1.13;;;;;;;;;;5101198;28;20042;-84
2021/09/28 09:28:31;;;;;;;2.28;0.70;;;;;;;;;;5100679;28;20468;-83
2021/09/28 09:31:08;;;;;;;1.85;0.80;;;;;;;;;;5099536;28;20031;-84
2021/09/28 09:33:34;;;;;;;3.17;0.65;;;;;;;;;;5099811;28;20038;-83
2021/09/28 09:35:59;;;;;;;2.80;0.90;;;;;;;;;;5099994;28;20111;-82
2021/09/28 09:38:26;;;;;;;3.07;0.97;;;;;;;;;;5099883;28;20020;-83
2021/09/28 09:40:52;;;;;;;;;;;;;;;;;;5100942;28;20047;-84
2021/09/28 09:43:27;;;;;;;;;;;;;;;;;;5100455;28;19912;-83
2021/09/28 09:46:06;;;;;;;2.25;0.73;;;;;;;;;;5099676;28;19915;-83
2021/09/28 09:48:33;;;;;;;2.85;1.30;;;;;;;;;;5098716;28;20449;-83
2021/09/28 09:51:05;;;;;;;3.25;0.70;;;;;;;;;;5098799;28;20375;-83
2021/09/28 09:53:31;;;;;;;4.82;0.90;;;;;;;;;;5099367;28;20016;-83
2021/09/28 09:55:58;;;;;;;3.70;0.65;;;;;;;;;;5099792;28;20032;-86
2021/09/28 09:58:24;;;;;;;3.67;1.02;;;;;;;;;;5098837;28;20032;-86
2021/09/28 10:00:53;;;;;;;5.80;1.27;;;;;;;;;;5099212;28;20089;-82
2021/09/28 10:03:18;;;;;;;1.42;0.70;;;;;;;;;;5098396;28;20127;-85
2021/09/28 10:05:43;;;;;;;4.63;0.97;;;;;;;;;;5098541;28;20059;-84
2021/09/28 10:08:11;;;;;;;3.50;0.80;;;;;;;;;;5099331;28;20032;-84
2021/09/28 10:10:37;;;;;;;3.63;1.23;;;;;;;;;;5104113;28;20019;-85
2021/09/28 10:13:03;;;;;;;4.55;1.75;;;;;;;;;;5116725;28;20091;-85
2021/09/28 10:15:29;;;;;;;3.88;1.65;;;;;;;;;;5119983;28;20012;-85
2021/09/28 10:17:55;;;;;;;4.97;1.50;;;;;;;;;;5120950;28;20040;-85
2021/09/28 10:20:20;;;;;;;5.00;1.20;;;;;;;;;;5119142;28;20036;-86
2021/09/28 10:22:50;;;;;;;3.10;1.20;;;;;;;;;;5113824;28;20274;-85
2021/09/28 10:25:18;;;;;;;2.95;1.20;;;;;;;;;;5113578;28;20012;-85
2021/09/28 10:27:44;;;;;;;3.85;1.40;;;;;;;;;;5115392;28;20048;-85
2021/09/28 10:30:10;;;;;;;6.78;2.00;;;;;;;;;;5113746;28;20024;-84
2021/09/28 10:32:44;;;;;;;4.60;1.77;;;;;;;;;;5113257;28;20073;-83
2021/09/28 10:35:13;;;;;;;6.43;2.13;;;;;;;;;;5101380;28;20362;-82
2021/09/28 10:37:50;;;;;;;5.93;2.08;;;;;;;;;;5100311;28;20047;-82
2021/09/28 10:40:22;;;;;;;5.38;1.65;;;;;;;;;;5099686;28;20080;-83
2021/09/28 10:43:05;;;;;;;4.57;1.70;;;;;;;;;;5100362;28;20035;-85
2021/09/28 10:45:35;;;;;;;7.13;2.00;;;;;;;;;;5102246;28;20442;-83
2021/09/28 10:48:30;;;;;;;8.23;3.10;;;;;;;;;;5101676;28;20044;-83
2021/09/28 10:51:22;;;;;;;6.13;1.77;;;;;;;;;;5097939;28;20038;-83
2021/09/28 10:53:53;;;;;;;3.38;0.90;;;;;;;;;;5097948;28;20020;-83
2021/09/28 10:56:19;;;;;;;3.67;1.15;;;;;;;;;;5101186;28;20032;-82
2021/09/28 10:58:57;;;;;;;3.95;1.33;;;;;;;;;;5097596;28;20031;-84
2021/09/28 11:01:28;;;;;;;3.95;1.20;;;;;;;;;;5096716;28;20058;-83
2021/09/28 11:03:57;;;;;;;3.13;1.13;;;;;;;;;;5100818;28;20035;-84
2021/09/28 11:06:47;;;;;;;3.15;0.90;;;;;;;;;;5101801;28;20023;-85
2021/09/28 11:09:13;;;;;;;2.47;0.90;;;;;;;;;;5101034;28;20024;-82
2021/09/28 11:11:39;;;;;;;2.45;0.85;;;;;;;;;;5101762;28;20031;-82
2021/09/28 11:14:06;;;;;;;5.03;1.00;;;;;;;;;;5105236;28;20024;-84
2021/09/28 11:16:43;;;;;;;3.00;0.95;;;;;;;;;;5099719;28;20035;-85
2021/09/28 11:19:08;;;;;;;5.90;1.52;;;;;;;;;;5097073;28;20039;-83
2021/09/28 11:21:40;;;;;;;;;;;;;;;;;;5097858;28;20028;-84
2021/09/28 11:24:06;;;;;;;5.10;1.10;;;;;;;;;;5098174;28;19908;-83
2021/09/28 11:26:38;;;;;;;;;;;;;;;;;;5098167;28;20388;-83
2021/09/28 11:29:06;;;;;;;3.60;1.10;;;;;;;;;;5098154;28;19980;-85
2021/09/28 11:31:34;;;;;;;4.20;1.00;;;;;;;;;;5096959;28;20016;-84
2021/09/28 11:34:00;;;;;;;3.42;0.90;;;;;;;;;;5096868;28;20364;-84
2021/09/28 11:36:31;;;;;;;3.90;1.38;;;;;;;;;;5097496;28;20035;-83
2021/09/28 11:38:56;;;;;;;3.47;0.90;;;;;;;;;;5097675;28;20020;-83
2021/09/28 11:41:22;;;;;;;3.28;1.10;;;;;;;;;;5096467;28;20084;-83
2021/09/28 11:43:52;;;;;;;5.55;1.23;;;;;;;;;;5096442;28;20475;-84
2021/09/28 11:46:19;;;;;;;5.25;1.00;;;;;;;;;;5097284;28;20052;-85
2021/09/28 11:49:00;;;;;;;3.83;0.93;;;;;;;;;;5096399;28;20115;-83
2021/09/28 11:51:37;;;;;;;4.18;1.02;;;;;;;;;;5097196;28;20020;-82
2021/09/28 11:54:07;;;;;;;2.85;0.90;;;;;;;;;;5096432;28;20058;-82
2021/09/28 11:56:35;;;;;;;4.13;1.10;;;;;;;;;;5095409;28;20038;-82
2021/09/28 11:59:01;;;;;;;5.53;1.00;;;;;;;;;;5094961;28;20060;-82
2021/09/28 12:01:27;;;;;;;2.33;1.10;;;;;;;;;;5096055;28;20059;-82
2021/09/28 12:04:32;;;;;;;;;;;;;;;;;;5095492;28;20047;-81
2021/09/28 12:07:57;;;;;;;3.22;1.10;;;;;;;;;;5095220;28;19947;-81
2021/09/28 12:10:02;;;;;;;3.90;1.17;;;;;;;;;;5095747;28;20469;-82
2021/09/28 12:12:28;;;;;;;4.07;1.10;;;;;;;;;;5094864;28;20400;-81
2021/09/28 12:14:56;;;;;;;4.20;0.93;;;;;;;;;;5096403;28;20495;-83
2021/09/28 12:17:23;;;;;;;2.83;0.80;;;;;;;;;;5096098;28;20480;-82
2021/09/28 12:19:52;;;;;;;2.33;0.80;;;;;;;;;;5096618;28;20055;-82
2021/09/28 12:22:30;;;;;;;2.05;0.82;;;;;;;;;;5095871;28;20411;-82
2021/09/28 12:24:56;;;;;;;3.10;0.93;;;;;;;;;;5108032;28;20027;-81
2021/09/28 12:27:23;;;;;;;3.08;0.70;;;;;;;;;;5113024;28;20065;-81
2021/09/28 12:29:50;;;;;;;3.60;0.90;;;;;;;;;;5116146;28;20034;-81
2021/09/28 12:32:23;;;;;;;3.63;0.80;;;;;;;;;;5108140;28;20077;-82
2021/09/28 12:34:54;;;;;;;3.10;0.90;;;;;;;;;;5095044;28;20024;-83
2021/09/28 12:37:20;;;;;;;4.22;0.80;;;;;;;;;;5094222;28;20035;-81
2021/09/28 12:40:09;;;;;;;4.00;1.02;;;;;;;;;;5094616;28;20031;-82
2021/09/28 12:42:36;;;;;;;2.72;0.70;;;;;;;;;;5095259;28;20132;-82
2021/09/28 12:45:11;;;;;;;3.50;1.00;;;;;;;;;;5095024;28;20028;-82
2021/09/28 12:47:38;;;;;;;2.65;0.90;;;;;;;;;;5095650;28;20048;-82
2021/09/28 12:50:18;;;;;;;3.67;1.00;;;;;;;;;;5094875;28;20369;-83
2021/09/28 12:52:44;;;;;;;4.15;1.02;;;;;;;;;;5095660;28;20089;-82
2021/09/28 12:55:09;;;;;;;3.93;1.00;;;;;;;;;;5094939;28;20327;-82
2021/09/28 12:57:35;;;;;;;2.72;0.90;;;;;;;;;;5095573;28;20054;-82
2021/09/28 13:00:01;;;;;;;3.22;0.80;;;;;;;;;;5095867;28;20043;-83
2021/09/28 13:02:26;;;;;;;3.23;0.73;;;;;;;;;;5096166;28;20141;-85
2021/09/28 13:04:51;;;;;;;2.87;1.20;;;;;;;;;;5098195;28;20020;-85
2021/09/28 13:07:17;;;;;;;3.17;1.10;;;;;;;;;;5098448;28;20029;-85
2021/09/28 13:09:44;;;;;;;2.77;0.63;;;;;;;;;;5096028;28;20270;-84
2021/09/28 13:12:10;;;;;;;2.97;0.85;;;;;;;;;;5097008;28;20016;-84
2021/09/28 13:14:35;;;;;;;3.42;1.00;;;;;;;;;;5095644;28;20024;-85
2021/09/28 13:17:01;;;;;;;1.77;0.90;;;;;;;;;;5096994;28;20020;-85
2021/09/28 13:19:27;;;;;;;6.67;1.10;;;;;;;;;;5096760;28;20039;-85
2021/09/28 13:21:53;;;;;;;3.22;0.98;;;;;;;;;;5096500;28;20023;-85
2021/09/28 13:24:18;;;;;;;3.67;0.90;;;;;;;;;;5098251;28;20028;-86
2021/09/28 13:26:43;;;;;;;4.97;1.67;;;;;;;;;;5097415;28;20442;-86
2021/09/28 13:29:09;;;;;;;3.53;1.13;;;;;;;;;;5101934;28;20035;-86
2021/09/28 13:31:34;;;;;;;2.27;0.93;;;;;;;;;;5099534;28;20020;-85
2021/09/28 13:33:59;;;;;;;4.37;1.23;;;;;;;;;;5099370;28;20024;-86
2021/09/28 13:36:25;;;;;;;5.17;0.90;;;;;;;;;;5105196;28;20024;-85
2021/09/28 13:38:50;;;;;;;3.03;1.33;;;;;;;;;;5119055;28;20038;-84
2021/09/28 13:41:16;;;;;;;3.37;1.23;;;;;;;;;;5117018;28;20039;-85
2021/09/28 13:43:42;;;;;;;6.78;1.08;;;;;;;;;;5106769;28;20024;-86
2021/09/28 13:46:07;;;;;;;2.50;0.93;;;;;;;;;;5098620;28;20058;-84
2021/09/28 13:48:33;;;;;;;2.47;1.00;;;;;;;;;;5099661;28;20105;-83
2021/09/28 13:50:58;;;;;;;2.60;0.90;;;;;;;;;;5099119;28;20430;-84
2021/09/28 13:53:24;;;;;;;3.57;1.40;;;;;;;;;;5098729;28;20020;-84
2021/09/28 13:55:49;;;;;;;2.03;0.87;;;;;;;;;;5098124;28;20020;-85
2021/09/28 13:58:14;;;;;;;3.27;0.90;;;;;;;;;;5098077;28;20081;-86
2021/09/28 14:00:40;;;;;;;5.60;1.30;;;;;;;;;;5099421;28;20358;-86
2021/09/28 14:03:05;;;;;;;2.67;0.63;;;;;;;;;;5097991;28;20020;-84
2021/09/28 14:05:30;;;;;;;3.67;0.90;;;;;;;;;;5099854;28;20028;-84
2021/09/28 14:07:58;;;;;;;3.17;0.97;;;;;;;;;;5098076;28;20024;-82
2021/09/28 14:10:23;;;;;;;2.90;0.93;;;;;;;;;;5098183;28;20053;-84
2021/09/28 14:12:49;;;;;;;3.10;1.10;;;;;;;;;;5098776;28;20115;-86
2021/09/28 14:15:14;;;;;;;5.60;0.97;;;;;;;;;;5101705;28;20050;-85
2021/09/28 14:17:40;;;;;;;1.90;0.70;;;;;;;;;;5102429;28;20016;-88
2021/09/28 14:20:07;;;;;;;5.13;0.85;;;;;;;;;;5100785;28;20032;-85
2021/09/28 14:22:32;;;;;;;2.05;0.82;;;;;;;;;;5102097;28;20032;-87
2021/09/28 14:24:58;;;;;;;3.60;0.93;;;;;;;;;;5100812;28;20024;-86
2021/09/28 14:27:24;;;;;;;4.10;0.83;;;;;;;;;;5100501;28;20028;-86
2021/09/28 14:29:50;;;;;;;1.97;0.80;;;;;;;;;;5098213;28;20047;-86
2021/09/28 14:32:15;;;;;;;4.03;1.13;;;;;;;;;;5099276;28;20125;-83
2021/09/28 14:34:41;;;;;;;4.03;0.90;;;;;;;;;;5099255;28;20141;-85
2021/09/28 14:37:06;;;;;;;5.27;1.10;;;;;;;;;;5098237;28;20110;-84
2021/09/28 14:39:31;;;;;;;2.97;0.80;;;;;;;;;;5098165;28;20043;-84
2021/09/28 14:41:57;;;;;;;3.23;1.00;;;;;;;;;;5099242;28;20042;-84
2021/09/28 14:44:22;;;;;;;1.67;0.80;;;;;;;;;;5098256;28;20319;-84
2021/09/28 14:46:48;;;;;;;2.30;0.90;;;;;;;;;;5098108;28;20381;-84